createdAt,value
2022-12-28T00:00:25.941Z,99074.67
2022-12-28T00:03:50.208Z,99068.81
2022-12-28T00:06:53.492Z,99068.90
2022-12-28T00:09:56.726Z,99068.25
2022-12-28T00:13:00.466Z,99060.73
2022-12-28T00:16:37.581Z,99061.00
2022-12-28T00:19:40.858Z,99061.35
2022-12-28T00:22:44.027Z,99063.81
2022-12-28T00:25:49.011Z,99063.66
2022-12-28T00:28:55.558Z,99065.75
2022-12-28T00:32:03.018Z,99062.77
2022-12-28T00:35:06.684Z,99061.77
2022-12-28T00:38:10.317Z,99065.97
2022-12-28T00:41:13.555Z,99064.30
2022-12-28T00:44:19.239Z,99062.61
2022-12-28T00:47:25.470Z,99061.19
2022-12-28T00:50:28.676Z,99057.77
2022-12-28T00:53:32.016Z,99060.54
2022-12-28T00:56:35.934Z,99064.09
2022-12-28T00:59:39.148Z,99061.03
2022-12-28T01:02:42.433Z,99057.75
2022-12-28T01:05:45.799Z,99063.77
2022-12-28T01:08:48.996Z,99066.63
2022-12-28T01:11:52.295Z,99065.77
2022-12-28T01:14:55.515Z,99064.65
2022-12-28T01:18:00.554Z,99064.29
2022-12-28T01:21:15.496Z,99066.73
2022-12-28T01:24:19.195Z,99070.20
2022-12-28T01:27:22.668Z,99063.87
2022-12-28T01:30:25.927Z,99064.36
2022-12-28T01:33:29.169Z,99066.17
2022-12-28T01:36:35.069Z,99067.63
2022-12-28T01:39:38.281Z,99064.35
2022-12-28T01:42:41.637Z,99060.11
2022-12-28T01:45:51.604Z,99057.85
2022-12-28T01:49:02.423Z,99052.90
2022-12-28T01:52:17.737Z,99049.45
2022-12-28T01:55:24.793Z,99039.98
2022-12-28T01:58:32.003Z,99039.14
2022-12-28T02:01:35.531Z,99039.83
2022-12-28T02:04:38.971Z,99041.93
2022-12-28T02:08:03.956Z,99037.83
2022-12-28T02:11:12.455Z,99032.42
2022-12-28T02:14:16.274Z,99025.09
2022-12-28T02:17:19.724Z,99015.92
2022-12-28T02:20:30.526Z,99007.33
2022-12-28T02:23:48.909Z,98994.85
2022-12-28T02:26:56.665Z,98986.63
2022-12-28T02:30:04.905Z,98988.70
2022-12-28T02:33:15.297Z,98983.69
2022-12-28T02:36:28.056Z,98982.23
2022-12-28T02:39:40.021Z,98973.11
2022-12-28T02:42:45.640Z,98969.66
2022-12-28T02:46:08.503Z,98971.95
2022-12-28T02:49:42.177Z,98974.52
2022-12-28T02:53:03.684Z,98975.17
2022-12-28T02:56:33.367Z,98972.96
2022-12-28T02:59:49.609Z,98969.76
2022-12-28T03:03:18.985Z,98962.59
2022-12-28T03:06:43.867Z,98956.70
2022-12-28T03:09:53.661Z,98961.98
2022-12-28T03:13:33.992Z,98961.88
2022-12-28T03:16:58.915Z,98964.55
2022-12-28T03:20:29.742Z,98970.36
2022-12-28T03:23:53.635Z,98962.70
2022-12-28T03:27:17.367Z,98959.48
2022-12-28T03:30:44.396Z,98951.45
2022-12-28T03:33:52.923Z,98946.77
2022-12-28T03:37:17.573Z,98954.43
2022-12-28T03:40:25.128Z,98943.80
2022-12-28T03:43:45.785Z,98947.12
2022-12-28T03:47:08.120Z,98946.30
2022-12-28T03:50:12.843Z,98938.98
2022-12-28T03:53:24.898Z,98934.60
2022-12-28T03:56:30.549Z,98932.58
2022-12-28T03:59:36.156Z,98925.15
2022-12-28T04:02:39.565Z,98923.95
2022-12-28T04:05:42.901Z,98922.73
2022-12-28T04:08:47.436Z,98918.46
2022-12-28T04:11:50.897Z,98912.63
2022-12-28T04:15:00.015Z,98900.05
2022-12-28T04:18:04.039Z,98899.36
2022-12-28T04:21:07.870Z,98900.36
2022-12-28T04:24:11.421Z,98903.55
2022-12-28T04:27:15.616Z,98904.17
2022-12-28T04:30:19.087Z,98897.05
2022-12-28T04:33:22.753Z,98898.45
2022-12-28T04:36:26.518Z,98888.16
2022-12-28T04:39:55.932Z,98889.27
2022-12-28T04:42:53.530Z,98889.50
2022-12-28T04:46:08.257Z,98890.28
2022-12-28T04:49:11.630Z,98885.39
2022-12-28T04:52:14.924Z,98878.17
2022-12-28T04:55:32.232Z,98872.14
2022-12-28T04:58:37.476Z,98870.56
2022-12-28T05:01:40.787Z,98866.66
2022-12-28T05:04:44.119Z,98863.63
2022-12-28T05:07:47.400Z,98858.47
2022-12-28T05:10:50.643Z,98859.30
2022-12-28T05:13:54.393Z,98856.61
2022-12-28T05:16:57.644Z,98851.31
2022-12-28T05:20:00.863Z,98852.05
2022-12-28T05:23:04.107Z,98843.98
2022-12-28T05:26:11.576Z,98847.55
2022-12-28T05:29:14.837Z,98838.35
2022-12-28T05:32:18.030Z,98840.15
2022-12-28T05:35:21.594Z,98838.07
2022-12-28T05:38:24.840Z,98834.77
2022-12-28T05:41:29.561Z,98834.94
2022-12-28T05:44:32.813Z,98831.01
2022-12-28T05:47:36.164Z,98825.04
2022-12-28T05:50:40.982Z,98825.27
2022-12-28T05:53:44.571Z,98815.14
2022-12-28T05:56:50.627Z,98821.30
2022-12-28T05:59:53.823Z,98815.42
2022-12-28T06:02:57.068Z,98820.42
2022-12-28T06:06:24.332Z,98815.54
2022-12-28T06:09:27.663Z,98808.91
2022-12-28T06:12:30.861Z,98805.70
2022-12-28T06:15:34.083Z,98803.96
2022-12-28T06:18:37.316Z,98795.70
2022-12-28T06:21:41.333Z,98788.98
2022-12-28T06:24:44.997Z,98790.91
2022-12-28T06:27:48.188Z,98789.40
2022-12-28T06:30:52.958Z,98785.33
2022-12-28T06:33:59.602Z,98781.92
2022-12-28T06:37:04.262Z,98779.50
2022-12-28T06:40:07.877Z,98778.42
2022-12-28T06:43:11.149Z,98779.80
2022-12-28T06:46:16.685Z,98780.09
2022-12-28T06:49:19.984Z,98781.15
2022-12-28T06:52:23.359Z,98784.05
2022-12-28T06:55:26.585Z,98781.63
2022-12-28T06:58:31.082Z,98781.11
2022-12-28T07:01:37.384Z,98786.64
2022-12-28T07:04:40.736Z,98785.77
2022-12-28T07:07:46.002Z,98784.23
2022-12-28T07:10:51.753Z,98789.89
2022-12-28T07:13:55.276Z,98785.14
2022-12-28T07:16:58.473Z,98785.51
2022-12-28T07:20:01.745Z,98780.87
2022-12-28T07:23:04.975Z,98779.36
2022-12-28T07:26:11.481Z,98772.11
2022-12-28T07:29:14.757Z,98770.95
2022-12-28T07:32:17.989Z,98764.98
2022-12-28T07:35:21.271Z,98760.59
2022-12-28T07:38:24.542Z,98765.04
2022-12-28T07:41:30.879Z,98764.41
2022-12-28T07:44:38.167Z,98765.40
2022-12-28T07:47:41.668Z,98764.89
2022-12-28T07:50:44.853Z,98764.66
2022-12-28T07:53:50.061Z,98767.71
2022-12-28T07:56:53.363Z,98760.77
2022-12-28T07:59:56.780Z,98762.35
2022-12-28T08:03:00.032Z,98761.27
2022-12-28T08:06:20.200Z,98759.92
2022-12-28T08:09:23.369Z,98759.27
2022-12-28T08:12:26.546Z,98760.48
2022-12-28T08:15:32.920Z,98765.70
2022-12-28T08:18:36.190Z,98765.01
2022-12-28T08:21:44.633Z,98761.00
2022-12-28T08:24:47.923Z,98763.75
2022-12-28T08:27:51.194Z,98763.08
2022-12-28T08:30:55.214Z,98759.86
2022-12-28T08:34:00.134Z,98766.33
2022-12-28T08:37:03.355Z,98763.23
2022-12-28T08:40:07.055Z,98763.13
2022-12-28T08:43:10.300Z,98766.02
2022-12-28T08:46:17.360Z,98760.69
2022-12-28T08:49:20.699Z,98766.35
2022-12-28T08:52:24.897Z,98764.89
2022-12-28T08:55:28.249Z,98768.58
2022-12-28T08:58:31.554Z,98768.31
2022-12-28T09:01:43.779Z,98773.27
2022-12-28T09:04:47.759Z,98776.98
2022-12-28T09:07:59.418Z,98770.04
2022-12-28T09:11:05.537Z,98767.41
2022-12-28T09:14:10.627Z,98764.24
2022-12-28T09:17:13.837Z,98764.80
2022-12-28T09:20:17.132Z,98761.23
2022-12-28T09:23:20.490Z,98764.81
2022-12-28T09:26:26.105Z,98764.98
2022-12-28T09:29:29.434Z,98765.75
2022-12-28T09:32:32.864Z,98762.88
2022-12-28T09:35:36.108Z,98764.13
2022-12-28T09:38:39.366Z,98758.40
2022-12-28T09:41:42.604Z,98761.88
2022-12-28T09:44:49.105Z,98766.10
2022-12-28T09:47:58.809Z,98769.98
2022-12-28T09:51:02.663Z,98765.36
2022-12-28T09:54:05.926Z,98763.61
2022-12-28T09:57:18.359Z,98755.16
2022-12-28T10:00:22.872Z,98754.36
2022-12-28T10:03:38.112Z,98750.85
2022-12-28T10:06:41.715Z,98745.64
2022-12-28T10:09:46.107Z,98733.45
2022-12-28T10:12:51.465Z,98732.76
2022-12-28T10:15:55.718Z,98731.27
2022-12-28T10:18:59.887Z,98724.06
2022-12-28T10:22:07.065Z,98711.04
2022-12-28T10:25:17.043Z,98706.58
2022-12-28T10:28:24.548Z,98693.90
2022-12-28T10:31:40.042Z,98684.77
2022-12-28T10:34:58.913Z,98670.41
2022-12-28T10:38:05.794Z,98672.65
2022-12-28T10:41:11.924Z,98662.92
2022-12-28T10:44:41.258Z,98660.95
2022-12-28T10:47:49.229Z,98662.61
2022-12-28T10:50:55.864Z,98650.46
2022-12-28T10:53:59.243Z,98641.33
2022-12-28T10:57:03.759Z,98637.88
2022-12-28T11:00:14.754Z,98642.81
2022-12-28T11:03:19.441Z,98642.31
2022-12-28T11:06:28.396Z,98637.95
2022-12-28T11:09:35.333Z,98635.30
2022-12-28T11:12:44.598Z,98628.55
2022-12-28T11:15:47.885Z,98625.36
2022-12-28T11:18:51.431Z,98610.48
2022-12-28T11:21:54.780Z,98610.02
2022-12-28T11:25:01.045Z,98609.48
2022-12-28T11:28:16.312Z,98604.27
2022-12-28T11:31:34.361Z,98599.98
2022-12-28T11:34:38.645Z,98592.64
2022-12-28T11:37:52.985Z,98586.77
2022-12-28T11:40:56.164Z,98579.41
2022-12-28T11:44:05.891Z,98577.59
2022-12-28T11:47:20.497Z,98570.19
2022-12-28T11:50:36.806Z,98564.83
2022-12-28T11:53:46.094Z,98563.26
2022-12-28T11:56:49.401Z,98554.39
2022-12-28T11:59:53.485Z,98552.63
2022-12-28T12:03:01.971Z,98551.63
2022-12-28T12:06:07.747Z,98543.56
2022-12-28T12:09:26.402Z,98534.95
2022-12-28T12:12:29.867Z,98522.13
2022-12-28T12:15:41.618Z,98525.34
2022-12-28T12:18:50.611Z,98526.06
2022-12-28T12:22:10.536Z,98524.17
2022-12-28T12:25:52.855Z,98518.84
2022-12-28T12:29:16.896Z,98511.17
2022-12-28T12:32:44.076Z,98514.48
2022-12-28T12:35:58.485Z,98507.67
2022-12-28T12:39:31.786Z,98499.44
2022-12-28T12:43:10.838Z,98493.52
2022-12-28T12:46:51.068Z,98491.27
2022-12-28T12:50:48.378Z,98495.96
2022-12-28T12:54:18.965Z,98485.35
2022-12-28T12:57:48.013Z,98475.92
2022-12-28T13:01:13.771Z,98474.60
2022-12-28T13:04:29.842Z,98466.28
2022-12-28T13:07:34.205Z,98448.38
2022-12-28T13:10:44.595Z,98427.77
2022-12-28T13:13:51.221Z,98425.45
2022-12-28T13:16:57.088Z,98430.96
2022-12-28T13:20:21.452Z,98440.53
2022-12-28T13:23:25.672Z,98437.35
2022-12-28T13:26:29.728Z,98434.73
2022-12-28T13:29:40.448Z,98431.52
2022-12-28T13:32:51.849Z,98431.02
2022-12-28T13:36:19.305Z,98425.36
2022-12-28T13:39:23.602Z,98422.39
2022-12-28T13:42:40.698Z,98426.50
2022-12-28T13:45:49.363Z,98433.64
2022-12-28T13:48:58.053Z,98431.55
2022-12-28T13:52:02.088Z,98422.22
2022-12-28T13:55:20.493Z,98418.53
2022-12-28T13:58:27.309Z,98422.81
2022-12-28T14:01:36.852Z,98424.41
2022-12-28T14:04:52.399Z,98428.71
2022-12-28T14:07:58.624Z,98434.40
2022-12-28T14:11:04.416Z,98437.23
2022-12-28T14:14:09.223Z,98439.59
2022-12-28T14:17:13.850Z,98432.56
2022-12-28T14:20:18.058Z,98426.46
2022-12-28T14:23:22.145Z,98420.35
2022-12-28T14:26:26.064Z,98418.84
2022-12-28T14:29:35.846Z,98409.08
2022-12-28T14:36:08.157Z,98396.05
2022-12-28T14:39:40.298Z,98393.95
2022-12-28T14:42:50.182Z,98393.79
2022-12-28T14:46:07.120Z,98383.80
2022-12-28T14:49:30.076Z,98383.27
2022-12-28T14:52:35.920Z,98381.57
2022-12-28T14:55:51.581Z,98382.11
2022-12-28T14:58:59.489Z,98383.13
2022-12-28T15:02:03.793Z,98383.86
2022-12-28T15:05:32.217Z,98383.04
2022-12-28T15:08:36.636Z,98379.65
2022-12-28T15:11:39.853Z,98371.84
2022-12-28T15:14:43.599Z,98365.04
2022-12-28T15:17:47.537Z,98367.41
2022-12-28T15:20:51.586Z,98366.93
2022-12-28T15:23:58.397Z,98360.94
2022-12-28T15:27:02.911Z,98357.23
2022-12-28T15:30:08.979Z,98349.84
2022-12-28T15:33:14.356Z,98349.25
2022-12-28T15:36:20.229Z,98351.00
2022-12-28T15:39:25.615Z,98350.55
2022-12-28T15:42:30.050Z,98349.29
2022-12-28T15:45:35.290Z,98345.02
2022-12-28T15:48:42.680Z,98346.00
2022-12-28T15:51:49.363Z,98339.13
2022-12-28T15:54:52.627Z,98339.23
2022-12-28T15:57:55.871Z,98336.15
2022-12-28T16:01:00.883Z,98335.07
2022-12-28T16:04:10.807Z,98326.24
2022-12-28T16:07:14.562Z,98323.58
2022-12-28T16:10:19.063Z,98326.38
2022-12-28T16:13:22.321Z,98329.52
2022-12-28T16:16:27.926Z,98328.34
2022-12-28T16:19:31.152Z,98332.58
2022-12-28T16:22:34.428Z,98330.21
2022-12-28T16:25:37.644Z,98324.02
2022-12-28T16:28:41.842Z,98319.27
2022-12-28T16:31:45.859Z,98311.09
2022-12-28T16:34:49.766Z,98317.79
2022-12-28T16:37:55.265Z,98312.41
2022-12-28T16:40:58.935Z,98308.67
2022-12-28T16:44:15.472Z,98310.76
2022-12-28T16:47:18.898Z,98312.07
2022-12-28T16:50:22.153Z,98314.56
2022-12-28T16:53:27.211Z,98315.85
2022-12-28T16:56:35.060Z,98310.15
2022-12-28T16:59:50.462Z,98307.84
2022-12-28T17:03:11.794Z,98307.72
2022-12-28T17:06:21.551Z,98307.40
2022-12-28T17:09:26.303Z,98308.02
2022-12-28T17:12:29.552Z,98316.23
2022-12-28T17:15:32.938Z,98323.04
2022-12-28T17:18:37.561Z,98317.15
2022-12-28T17:21:40.957Z,98321.05
2022-12-28T17:24:44.333Z,98318.71
2022-12-28T17:27:47.624Z,98316.47
2022-12-28T17:30:51.073Z,98315.63
2022-12-28T17:33:57.832Z,98317.05
2022-12-28T17:37:01.179Z,98318.38
2022-12-28T17:40:04.814Z,98313.08
2022-12-28T17:43:08.515Z,98305.48
2022-12-28T17:46:11.791Z,98308.62
2022-12-28T17:49:16.736Z,98307.47
2022-12-28T17:52:22.337Z,98307.77
2022-12-28T17:55:25.607Z,98309.95
2022-12-28T17:58:29.089Z,98313.70
2022-12-28T18:01:32.794Z,98314.98
2022-12-28T18:04:36.960Z,98319.44
2022-12-28T18:07:40.212Z,98317.27
2022-12-28T18:10:44.256Z,98320.14
2022-12-28T18:13:47.996Z,98313.95
2022-12-28T18:16:51.278Z,98312.16
2022-12-28T18:19:56.035Z,98311.77
2022-12-28T18:22:59.444Z,98318.79
2022-12-28T18:26:26.259Z,98316.98
2022-12-28T18:29:30.411Z,98313.50
2022-12-28T18:32:33.687Z,98316.83
2022-12-28T18:35:36.996Z,98324.77
2022-12-28T18:38:45.114Z,98323.35
2022-12-28T18:41:50.414Z,98318.98
2022-12-28T18:44:53.800Z,98311.66
2022-12-28T18:47:57.524Z,98322.09
2022-12-28T18:51:05.599Z,98322.17
2022-12-28T18:54:08.764Z,98322.25
2022-12-28T18:57:12.285Z,98323.13
2022-12-28T19:00:15.944Z,98326.69
2022-12-28T19:03:19.439Z,98331.31
2022-12-28T19:06:23.492Z,98329.92
2022-12-28T19:09:26.783Z,98326.26
2022-12-28T19:12:30.008Z,98319.48
2022-12-28T19:15:33.329Z,98320.67
2022-12-28T19:18:36.940Z,98317.89
2022-12-28T19:21:42.441Z,98318.66
2022-12-28T19:24:47.063Z,98320.27
2022-12-28T19:27:50.849Z,98312.10
2022-12-28T19:30:57.031Z,98311.04
2022-12-28T19:34:03.163Z,98310.53
2022-12-28T19:37:06.560Z,98304.86
2022-12-28T19:40:09.935Z,98302.20
2022-12-28T19:43:13.257Z,98303.98
2022-12-28T19:46:23.365Z,98303.63
2022-12-28T19:49:26.794Z,98298.56
2022-12-28T19:52:30.069Z,98296.38
2022-12-28T19:55:34.666Z,98292.55
2022-12-28T19:58:41.067Z,98291.09
2022-12-28T20:01:44.564Z,98284.46
2022-12-28T20:04:48.075Z,98282.73
2022-12-28T20:07:51.552Z,98275.25
2022-12-28T20:10:56.511Z,98273.73
2022-12-28T20:14:02.152Z,98267.80
2022-12-28T20:17:05.453Z,98265.80
2022-12-28T20:20:09.066Z,98262.30
2022-12-28T20:23:12.378Z,98259.47
2022-12-28T20:26:16.538Z,98254.91
2022-12-28T20:29:19.907Z,98249.34
2022-12-28T20:32:23.193Z,98251.11
2022-12-28T20:35:26.586Z,98256.39
2022-12-28T20:38:30.229Z,98246.30
2022-12-28T20:41:52.763Z,98241.45
2022-12-28T20:44:56.957Z,98239.18
2022-12-28T20:48:00.989Z,98232.19
2022-12-28T20:51:04.355Z,98229.44
2022-12-28T20:54:07.715Z,98220.41
2022-12-28T20:57:10.960Z,98216.72
2022-12-28T21:00:14.761Z,98220.21
2022-12-28T21:03:18.051Z,98226.07
2022-12-28T21:06:21.485Z,98219.33
2022-12-28T21:09:24.781Z,98222.27
2022-12-28T21:12:28.355Z,98223.66
2022-12-28T21:15:31.862Z,98223.00
2022-12-28T21:18:35.811Z,98226.75
2022-12-28T21:21:39.503Z,98226.50
2022-12-28T21:24:42.966Z,98226.39
2022-12-28T21:27:46.769Z,98215.04
2022-12-28T21:30:55.215Z,98211.64
2022-12-28T21:33:58.684Z,98208.05
2022-12-28T21:37:21.914Z,98212.08
2022-12-28T21:40:25.263Z,98208.91
2022-12-28T21:43:30.101Z,98208.66
2022-12-28T21:46:33.342Z,98207.86
2022-12-28T21:49:36.640Z,98201.77
2022-12-28T21:52:39.935Z,98203.34
2022-12-28T21:55:43.239Z,98200.21
2022-12-28T21:58:46.660Z,98199.09
2022-12-28T22:02:08.669Z,98190.27
2022-12-28T22:05:30.499Z,98190.70
2022-12-28T22:08:52.902Z,98190.40
2022-12-28T22:12:14.610Z,98186.80
2022-12-28T22:15:38.939Z,98183.02
2022-12-28T22:19:01.729Z,98180.69
2022-12-28T22:22:06.083Z,98180.65
2022-12-28T22:25:11.177Z,98170.14
2022-12-28T22:28:14.794Z,98168.18
2022-12-28T22:31:18.152Z,98166.65
2022-12-28T22:34:21.594Z,98169.20
2022-12-28T22:37:24.925Z,98173.89
2022-12-28T22:40:30.284Z,98176.95
2022-12-28T22:43:34.007Z,98183.69
2022-12-28T22:46:37.418Z,98180.12
2022-12-28T22:49:41.428Z,98177.64
2022-12-28T22:52:44.804Z,98177.34
2022-12-28T22:56:02.492Z,98179.27
2022-12-28T22:59:08.568Z,98175.14
2022-12-28T23:02:14.390Z,98162.98
2022-12-28T23:05:17.874Z,98166.23
2022-12-28T23:08:21.211Z,98169.04
2022-12-28T23:11:36.907Z,98164.11
2022-12-28T23:14:58.663Z,98166.08
2022-12-28T23:18:20.617Z,98165.89
2022-12-28T23:21:42.530Z,98160.38
2022-12-28T23:25:04.503Z,98152.65
2022-12-28T23:28:10.880Z,98155.89
2022-12-28T23:31:14.152Z,98157.77
2022-12-28T23:34:17.404Z,98155.89
2022-12-28T23:37:20.649Z,98153.42
2022-12-28T23:40:24.251Z,98163.00
2022-12-28T23:43:27.569Z,98167.98
2022-12-28T23:46:30.911Z,98169.43
2022-12-28T23:49:34.173Z,98169.27
2022-12-28T23:52:37.433Z,98165.69
2022-12-28T23:55:40.642Z,98157.42
2022-12-28T23:58:43.871Z,98152.80
